createdAt,value
2023-05-22T00:01:45.319Z,9.90
2023-05-22T00:04:13.477Z,9.10
2023-05-22T00:06:43.809Z,10.30
2023-05-22T00:09:10.569Z,9.50
2023-05-22T00:11:37.195Z,9.20
2023-05-22T00:14:03.888Z,9.80
2023-05-22T00:16:30.683Z,9.80
2023-05-22T00:18:57.738Z,9.70
2023-05-22T00:21:24.689Z,10.50
2023-05-22T00:23:51.329Z,9.10
2023-05-22T00:26:17.978Z,9.90
2023-05-22T00:28:44.618Z,9.00
2023-05-22T00:31:11.502Z,8.90
2023-05-22T00:33:38.380Z,9.90
2023-05-22T00:36:06.006Z,10.10
2023-05-22T00:38:34.291Z,8.90
2023-05-22T00:41:02.805Z,10.10
2023-05-22T00:43:29.549Z,9.90
2023-05-22T00:45:56.407Z,10.00
2023-05-22T00:48:23.642Z,10.40
2023-05-22T00:50:50.889Z,10.90
2023-05-22T00:53:19.652Z,10.70
2023-05-22T00:55:46.308Z,11.00
2023-05-22T00:58:19.287Z,11.40
2023-05-22T01:00:49.117Z,11.50
2023-05-22T01:03:16.313Z,11.40
2023-05-22T01:05:43.804Z,10.70
2023-05-22T01:08:10.618Z,11.60
2023-05-22T01:10:38.181Z,11.90
2023-05-22T01:13:19.105Z,12.40
2023-05-22T01:16:04.911Z,12.90
2023-05-22T01:18:42.610Z,12.70
2023-05-22T01:21:13.662Z,12.70
2023-05-22T01:24:18.287Z,12.70
2023-05-22T01:27:08.303Z,12.20
2023-05-22T01:30:07.211Z,12.20
2023-05-22T01:32:34.425Z,13.20
2023-05-22T01:35:01.931Z,13.30
2023-05-22T01:37:28.699Z,12.30
2023-05-22T01:39:55.865Z,12.40
2023-05-22T01:42:22.748Z,13.00
2023-05-22T01:44:49.452Z,12.40
2023-05-22T01:47:16.965Z,12.30
2023-05-22T01:52:15.563Z,13.50
2023-05-22T01:54:52.760Z,14.20
2023-05-22T01:57:33.122Z,15.00
2023-05-22T02:00:09.747Z,14.50
2023-05-22T02:02:49.568Z,14.30
2023-05-22T02:05:18.446Z,15.00
2023-05-22T02:07:45.515Z,15.00
2023-05-22T02:10:12.467Z,15.10
2023-05-22T02:12:39.153Z,15.10
2023-05-22T02:15:07.110Z,15.80
2023-05-22T02:17:40.634Z,14.40
2023-05-22T02:20:15.123Z,14.10
2023-05-22T02:22:46.797Z,15.20
2023-05-22T02:25:14.959Z,15.30
2023-05-22T02:27:42.913Z,15.40
2023-05-22T02:32:37.555Z,15.00
2023-05-22T02:37:31.745Z,14.90
2023-05-22T02:39:59.070Z,15.80
2023-05-22T02:42:26.076Z,15.70
2023-05-22T02:44:53.735Z,16.00
2023-05-22T02:47:20.481Z,15.20
2023-05-22T02:49:47.390Z,15.50
2023-05-22T02:54:41.952Z,15.40
2023-05-22T02:57:08.651Z,15.30
2023-05-22T02:59:36.832Z,14.60
2023-05-22T03:02:03.866Z,14.50
2023-05-22T03:04:30.731Z,14.90
2023-05-22T03:06:57.424Z,15.10
2023-05-22T03:09:25.543Z,15.40
2023-05-22T03:11:52.188Z,14.30
2023-05-22T03:14:18.819Z,14.40
2023-05-22T03:16:45.513Z,15.10
2023-05-22T03:19:15.910Z,14.90
2023-05-22T03:21:46.038Z,14.50
2023-05-22T03:24:13.196Z,13.40
2023-05-22T03:26:40.008Z,14.30
2023-05-22T03:29:08.773Z,13.90
2023-05-22T03:31:36.176Z,13.70
2023-05-22T03:34:08.729Z,13.30
2023-05-22T03:36:37.110Z,12.60
2023-05-22T03:39:04.134Z,12.40
2023-05-22T03:41:33.001Z,12.70
2023-05-22T03:43:59.978Z,13.10
2023-05-22T03:46:27.182Z,12.40
2023-05-22T03:48:54.118Z,12.50
2023-05-22T03:51:20.759Z,12.70
2023-05-22T03:53:47.467Z,11.50
2023-05-22T03:56:14.588Z,10.90
2023-05-22T03:58:41.287Z,10.80
2023-05-22T04:01:10.109Z,11.20
2023-05-22T04:03:37.911Z,10.80
2023-05-22T04:06:05.895Z,11.20
2023-05-22T04:08:32.726Z,10.50
2023-05-22T04:11:00.446Z,10.40
2023-05-22T04:13:27.371Z,9.20
2023-05-22T04:15:54.149Z,10.00
2023-05-22T04:18:20.991Z,9.30
2023-05-22T04:20:47.874Z,10.20
2023-05-22T04:23:14.563Z,9.40
2023-05-22T04:25:41.291Z,9.20
2023-05-22T04:28:09.446Z,9.70
2023-05-22T04:30:40.428Z,9.70
2023-05-22T04:33:08.554Z,8.80
2023-05-22T04:35:36.165Z,8.40
2023-05-22T04:38:06.594Z,8.80
2023-05-22T04:40:38.092Z,8.50
2023-05-22T04:43:05.208Z,8.40
2023-05-22T04:45:33.026Z,8.20
2023-05-22T04:48:02.588Z,7.90
2023-05-22T04:50:33.054Z,7.80
2023-05-22T04:53:00.056Z,6.90
2023-05-22T04:55:26.850Z,6.70
2023-05-22T04:57:53.763Z,7.20
2023-05-22T05:00:26.389Z,6.70
2023-05-22T05:02:53.595Z,7.00
2023-05-22T05:05:20.591Z,6.90
2023-05-22T05:07:50.057Z,6.30
2023-05-22T05:10:17.735Z,6.50
2023-05-22T05:12:44.429Z,7.00
2023-05-22T05:15:11.225Z,7.10
2023-05-22T05:17:38.430Z,7.30
2023-05-22T05:20:07.642Z,5.70
2023-05-22T05:22:34.672Z,6.10
2023-05-22T05:25:03.768Z,5.60
2023-05-22T05:27:30.760Z,6.70
2023-05-22T05:29:57.452Z,7.80
2023-05-22T05:32:30.427Z,5.90
2023-05-22T05:35:02.929Z,5.20
2023-05-22T05:37:50.073Z,4.60
2023-05-22T05:40:17.282Z,4.70
2023-05-22T05:42:50.153Z,4.20
2023-05-22T05:45:19.029Z,4.00
2023-05-22T05:47:45.956Z,3.90
2023-05-22T05:50:15.636Z,3.70
2023-05-22T05:52:42.951Z,4.30
2023-05-22T05:55:14.372Z,4.20
2023-05-22T05:57:41.489Z,4.20
2023-05-22T06:00:12.583Z,3.60
2023-05-22T06:02:42.303Z,4.00
2023-05-22T06:05:41.919Z,3.50
2023-05-22T06:08:32.323Z,3.60
2023-05-22T06:10:59.280Z,3.60
2023-05-22T06:13:32.695Z,3.70
2023-05-22T06:16:02.753Z,3.10
2023-05-22T06:18:31.339Z,3.80
2023-05-22T06:20:59.187Z,3.10
2023-05-22T06:23:25.999Z,5.20
2023-05-22T06:25:54.043Z,3.40
2023-05-22T06:28:21.386Z,3.70
2023-05-22T06:30:48.363Z,3.40
2023-05-22T06:33:16.802Z,3.50
2023-05-22T06:35:44.480Z,3.50
2023-05-22T06:38:12.389Z,3.60
2023-05-22T06:40:40.243Z,3.60
2023-05-22T06:43:13.260Z,3.10
2023-05-22T06:45:51.061Z,3.20
2023-05-22T06:48:36.210Z,3.30
2023-05-22T06:51:12.899Z,3.10
2023-05-22T06:53:40.746Z,3.20
2023-05-22T06:56:12.289Z,2.50
2023-05-22T06:58:54.860Z,2.70
2023-05-22T07:01:23.774Z,2.60
2023-05-22T07:04:05.192Z,2.60
2023-05-22T07:06:39.138Z,2.70
2023-05-22T07:09:06.459Z,2.60
2023-05-22T07:14:01.472Z,2.80
2023-05-22T07:16:29.986Z,2.70
2023-05-22T07:18:57.303Z,2.80
2023-05-22T07:21:24.292Z,3.30
2023-05-22T07:23:52.443Z,3.80
2023-05-22T07:26:19.236Z,2.80
2023-05-22T07:28:51.414Z,2.40
2023-05-22T07:31:18.124Z,3.10
2023-05-22T07:33:45.448Z,2.70
2023-05-22T07:36:12.581Z,2.70
2023-05-22T07:38:41.048Z,3.20
2023-05-22T07:41:07.894Z,3.30
2023-05-22T07:43:34.734Z,3.80
2023-05-22T07:46:01.871Z,38.20
2023-05-22T07:48:33.878Z,7.30
2023-05-22T07:51:00.849Z,3.80
2023-05-22T07:53:27.574Z,3.80
2023-05-22T07:55:55.954Z,3.00
2023-05-22T07:58:24.241Z,3.40
2023-05-22T08:00:51.411Z,2.70
2023-05-22T08:03:18.818Z,2.70
2023-05-22T08:05:46.547Z,2.40
2023-05-22T08:08:13.367Z,3.00
2023-05-22T08:13:10.562Z,2.70
2023-05-22T08:15:37.197Z,3.80
2023-05-22T08:18:04.009Z,3.00
2023-05-22T08:20:30.921Z,2.70
2023-05-22T08:22:57.659Z,2.70
2023-05-22T08:25:24.330Z,3.00
2023-05-22T08:27:50.982Z,2.60
2023-05-22T08:30:17.851Z,2.60
2023-05-22T08:32:44.661Z,2.30
2023-05-22T08:35:11.442Z,2.70
2023-05-22T08:37:38.100Z,2.30
2023-05-22T08:40:06.132Z,2.60
2023-05-22T08:42:33.099Z,3.00
2023-05-22T08:45:01.189Z,2.60
2023-05-22T08:47:28.575Z,2.30
2023-05-22T08:52:23.192Z,2.20
2023-05-22T08:54:53.197Z,2.30
2023-05-22T08:57:20.552Z,2.60
2023-05-22T08:59:47.420Z,2.10
2023-05-22T09:02:14.113Z,2.50
2023-05-22T09:04:41.222Z,2.40
2023-05-22T09:07:09.187Z,2.40
2023-05-22T09:09:39.076Z,2.40
2023-05-22T09:12:09.222Z,2.50
2023-05-22T09:14:45.135Z,2.70
2023-05-22T09:17:18.649Z,2.20
2023-05-22T09:19:48.296Z,2.30
2023-05-22T09:22:15.198Z,2.60
2023-05-22T09:24:42.536Z,2.60
2023-05-22T09:27:09.863Z,2.40
2023-05-22T09:32:17.740Z,2.50
2023-05-22T09:34:47.940Z,2.10
2023-05-22T09:37:15.853Z,2.40
2023-05-22T09:39:47.087Z,2.30
2023-05-22T09:42:17.970Z,2.40
2023-05-22T09:44:48.765Z,2.50
2023-05-22T09:47:15.682Z,2.40
2023-05-22T09:49:43.366Z,2.80
2023-05-22T09:52:12.512Z,2.10
2023-05-22T09:54:45.647Z,2.30
2023-05-22T09:57:14.080Z,2.20
2023-05-22T09:59:40.946Z,2.50
2023-05-22T10:02:07.714Z,2.60
2023-05-22T10:04:34.575Z,2.40
2023-05-22T10:07:02.433Z,2.20
2023-05-22T10:09:31.352Z,2.90
2023-05-22T10:11:58.690Z,2.20
2023-05-22T10:14:25.499Z,2.80
2023-05-22T10:16:52.719Z,2.20
2023-05-22T10:19:19.614Z,2.40
2023-05-22T10:21:47.392Z,2.10
2023-05-22T10:24:14.023Z,2.50
2023-05-22T10:26:40.739Z,2.10
2023-05-22T10:29:11.057Z,2.80
2023-05-22T10:31:55.791Z,2.60
2023-05-22T10:37:21.758Z,2.00
2023-05-22T10:40:02.148Z,2.50
2023-05-22T10:42:30.919Z,2.30
2023-05-22T10:45:01.373Z,2.40
2023-05-22T10:47:28.155Z,2.30
2023-05-22T10:50:06.715Z,2.30
2023-05-22T10:52:33.554Z,2.00
2023-05-22T10:55:00.460Z,2.50
2023-05-22T10:57:27.470Z,2.50
2023-05-22T11:00:09.995Z,2.40
2023-05-22T11:02:39.537Z,2.40
2023-05-22T11:05:18.612Z,2.10
2023-05-22T11:07:45.467Z,2.60
2023-05-22T11:10:12.227Z,2.40
2023-05-22T11:12:38.881Z,2.30
2023-05-22T11:15:09.864Z,2.20
2023-05-22T11:17:40.038Z,2.10
2023-05-22T11:20:12.537Z,2.10
2023-05-22T11:22:44.279Z,2.20
2023-05-22T11:25:17.931Z,2.40
2023-05-22T11:27:44.730Z,2.40
2023-05-22T11:30:11.897Z,2.70
2023-05-22T11:32:39.855Z,2.20
2023-05-22T11:35:10.061Z,1.70
2023-05-22T11:37:40.521Z,2.40
2023-05-22T11:40:08.117Z,1.90
2023-05-22T11:42:35.566Z,2.40
2023-05-22T11:45:02.836Z,2.50
2023-05-22T11:47:30.224Z,2.20
2023-05-22T11:49:57.722Z,2.30
2023-05-22T11:54:54.156Z,1.90
2023-05-22T11:57:20.894Z,1.90
2023-05-22T11:59:47.586Z,2.20
2023-05-22T12:02:14.578Z,2.10
2023-05-22T12:04:41.414Z,2.60
2023-05-22T12:07:08.462Z,2.40
2023-05-22T12:09:35.141Z,2.20
2023-05-22T12:12:01.807Z,2.20
2023-05-22T12:14:29.202Z,2.00
2023-05-22T12:19:22.712Z,2.30
2023-05-22T12:21:50.166Z,2.50
2023-05-22T12:24:21.636Z,2.30
2023-05-22T12:26:52.644Z,2.00
2023-05-22T12:29:21.721Z,2.30
2023-05-22T12:31:48.438Z,2.30
2023-05-22T12:34:16.240Z,2.20
2023-05-22T12:36:43.660Z,2.30
2023-05-22T12:41:38.548Z,2.00
2023-05-22T12:46:33.734Z,2.20
2023-05-22T12:49:01.167Z,2.30
2023-05-22T12:53:59.063Z,2.30
2023-05-22T12:56:26.499Z,2.90
2023-05-22T13:01:21.835Z,2.30
2023-05-22T13:03:49.158Z,2.70
2023-05-22T13:06:16.639Z,2.50
2023-05-22T13:08:43.837Z,2.40
2023-05-22T13:11:11.331Z,2.60
2023-05-22T13:13:38.562Z,2.90
2023-05-22T13:18:33.281Z,2.20
2023-05-22T13:21:00.725Z,2.00
2023-05-22T13:25:55.298Z,2.00
2023-05-22T13:30:49.700Z,2.50
2023-05-22T13:33:16.915Z,2.30
2023-05-22T13:35:44.753Z,2.30
2023-05-22T13:38:11.947Z,2.50
2023-05-22T13:40:39.216Z,2.10
2023-05-22T13:43:06.370Z,2.00
2023-05-22T13:45:33.874Z,2.30
2023-05-22T13:48:01.572Z,2.40
2023-05-22T13:50:28.890Z,3.60
2023-05-22T13:52:56.597Z,2.50
2023-05-22T13:55:24.000Z,2.30
2023-05-22T13:57:51.748Z,2.30
2023-05-22T14:00:19.750Z,2.30
2023-05-22T14:02:47.456Z,2.30
2023-05-22T14:07:42.432Z,2.10
2023-05-22T14:10:10.313Z,2.50
2023-05-22T14:12:37.531Z,2.00
2023-05-22T14:15:05.382Z,2.50
2023-05-22T14:17:32.544Z,2.10
2023-05-22T14:19:59.981Z,2.20
2023-05-22T14:24:54.359Z,2.00
2023-05-22T14:27:21.522Z,2.20
2023-05-22T14:29:48.726Z,2.30
2023-05-22T14:32:15.997Z,2.10
2023-05-22T14:34:43.192Z,2.40
2023-05-22T14:37:10.536Z,2.60
2023-05-22T14:42:04.894Z,2.20
2023-05-22T14:44:32.087Z,2.10
2023-05-22T14:46:59.654Z,2.20
2023-05-22T14:49:26.939Z,2.30
2023-05-22T14:51:54.679Z,2.30
2023-05-22T14:54:23.702Z,2.20
2023-05-22T14:56:50.931Z,2.00
2023-05-22T14:59:18.639Z,2.20
2023-05-22T15:01:50.125Z,1.90
2023-05-22T15:04:18.040Z,2.20
2023-05-22T15:06:45.471Z,2.40
2023-05-22T15:11:41.043Z,2.20
2023-05-22T15:14:08.211Z,2.00
2023-05-22T15:16:35.656Z,2.30
2023-05-22T15:19:03.411Z,2.20
2023-05-22T15:21:31.452Z,2.20
2023-05-22T15:23:59.016Z,2.20
2023-05-22T15:26:26.405Z,2.40
2023-05-22T15:31:20.735Z,2.40
2023-05-22T15:33:47.959Z,1.80
2023-05-22T15:36:15.186Z,2.30
2023-05-22T15:38:42.641Z,1.90
2023-05-22T15:43:36.950Z,2.30
2023-05-22T15:46:04.179Z,2.30
2023-05-22T15:48:32.954Z,2.30
2023-05-22T15:51:00.460Z,2.10
2023-05-22T15:53:27.639Z,2.20
2023-05-22T15:55:54.850Z,2.20
2023-05-22T15:58:22.289Z,2.40
2023-05-22T16:00:49.620Z,2.50
2023-05-22T16:05:47.105Z,2.20
2023-05-22T16:08:15.509Z,2.60
2023-05-22T16:10:44.494Z,2.70
2023-05-22T16:13:12.174Z,2.30
2023-05-22T16:18:08.044Z,2.40
2023-05-22T16:20:35.889Z,2.40
2023-05-22T16:23:03.167Z,2.50
2023-05-22T16:25:30.384Z,3.70
2023-05-22T16:30:24.913Z,2.40
2023-05-22T16:32:52.158Z,2.30
2023-05-22T16:35:23.693Z,2.60
2023-05-22T16:37:51.027Z,2.50
2023-05-22T16:42:46.032Z,2.70
2023-05-22T16:45:13.315Z,2.30
2023-05-22T16:47:40.690Z,2.60
2023-05-22T16:50:08.705Z,2.60
2023-05-22T16:52:36.770Z,2.80
2023-05-22T16:55:04.757Z,2.60
2023-05-22T16:57:31.977Z,2.40
2023-05-22T16:59:59.182Z,2.70
2023-05-22T17:02:26.473Z,2.60
2023-05-22T17:04:54.577Z,2.90
2023-05-22T17:07:21.993Z,3.40
2023-05-22T17:12:16.491Z,3.60
2023-05-22T17:14:43.876Z,4.50
2023-05-22T17:17:11.123Z,3.10
2023-05-22T17:19:38.530Z,3.60
2023-05-22T17:24:34.152Z,2.90
2023-05-22T17:27:03.463Z,2.70
2023-05-22T17:29:30.708Z,3.20
2023-05-22T17:31:57.984Z,2.60
2023-05-22T17:34:25.332Z,3.10
2023-05-22T17:36:52.589Z,2.90
2023-05-22T17:39:19.793Z,2.90
2023-05-22T17:41:46.967Z,3.00
2023-05-22T17:44:14.184Z,3.70
2023-05-22T17:46:41.652Z,3.30
2023-05-22T17:49:09.449Z,3.80
2023-05-22T17:51:37.375Z,4.20
2023-05-22T17:54:06.258Z,4.10
2023-05-22T17:56:33.477Z,3.30
2023-05-22T17:59:01.361Z,3.40
2023-05-22T18:01:29.586Z,3.30
2023-05-22T18:03:56.908Z,3.10
2023-05-22T18:06:24.528Z,3.60
2023-05-22T18:08:52.025Z,3.50
2023-05-22T18:11:19.356Z,3.50
2023-05-22T18:13:46.781Z,3.40
2023-05-22T18:18:41.971Z,3.50
2023-05-22T18:23:36.374Z,3.60
2023-05-22T18:26:03.577Z,3.80
2023-05-22T18:28:30.818Z,3.20
2023-05-22T18:30:58.095Z,3.70
2023-05-22T18:33:25.383Z,3.90
2023-05-22T18:35:52.768Z,4.30
2023-05-22T18:38:22.052Z,4.10
2023-05-22T18:40:49.240Z,4.60
2023-05-22T18:43:16.458Z,3.90
2023-05-22T18:45:43.814Z,3.90
2023-05-22T18:48:11.229Z,3.80
2023-05-22T18:50:38.943Z,4.40
2023-05-22T18:55:34.426Z,4.30
2023-05-22T18:58:01.655Z,4.10
2023-05-22T19:00:28.852Z,4.00
2023-05-22T19:02:56.414Z,4.20
2023-05-22T19:05:23.664Z,4.30
2023-05-22T19:07:50.890Z,3.70
2023-05-22T19:10:18.126Z,4.50
2023-05-22T19:12:45.351Z,5.50
2023-05-22T19:15:12.529Z,4.90
2023-05-22T19:17:39.781Z,5.00
2023-05-22T19:20:07.758Z,4.50
2023-05-22T19:22:35.023Z,5.00
2023-05-22T19:25:02.921Z,4.30
2023-05-22T19:27:30.391Z,4.30
2023-05-22T19:29:57.606Z,4.90
2023-05-22T19:32:25.060Z,4.60
2023-05-22T19:34:52.277Z,4.40
2023-05-22T19:37:19.614Z,4.60
2023-05-22T19:39:48.450Z,4.20
2023-05-22T19:42:15.811Z,4.50
2023-05-22T19:44:43.032Z,4.70
2023-05-22T19:47:10.296Z,4.80
2023-05-22T19:49:37.985Z,4.50
2023-05-22T19:52:06.063Z,4.50
2023-05-22T19:54:35.376Z,4.30
2023-05-22T19:57:03.101Z,4.30
2023-05-22T19:59:30.573Z,4.40
2023-05-22T20:04:25.103Z,4.60
2023-05-22T20:06:54.123Z,5.40
2023-05-22T20:09:21.653Z,5.20
2023-05-22T20:14:16.086Z,4.40
2023-05-22T20:16:43.556Z,4.90
2023-05-22T20:19:10.971Z,4.40
2023-05-22T20:21:38.346Z,4.20
2023-05-22T20:24:12.074Z,5.00
2023-05-22T20:26:39.355Z,4.40
2023-05-22T20:29:06.599Z,4.60
2023-05-22T20:31:34.841Z,4.50
2023-05-22T20:34:02.406Z,5.10
2023-05-22T20:36:29.774Z,4.90
2023-05-22T20:38:58.544Z,4.60
2023-05-22T20:41:25.922Z,5.20
2023-05-22T20:43:54.526Z,5.10
2023-05-22T20:46:25.171Z,5.30
2023-05-22T20:48:52.523Z,4.90
2023-05-22T20:51:20.598Z,5.10
2023-05-22T20:53:48.417Z,5.40
2023-05-22T20:56:16.300Z,5.60
2023-05-22T20:58:43.660Z,5.10
2023-05-22T21:01:11.036Z,5.10
2023-05-22T21:06:06.247Z,5.30
2023-05-22T21:08:34.231Z,5.90
2023-05-22T21:11:01.510Z,5.40
2023-05-22T21:13:28.725Z,5.90
2023-05-22T21:15:55.914Z,5.50
2023-05-22T21:18:24.298Z,5.90
2023-05-22T21:20:51.712Z,5.90
2023-05-22T21:25:46.101Z,6.30
2023-05-22T21:28:13.280Z,5.90
2023-05-22T21:30:40.643Z,6.10
2023-05-22T21:33:08.231Z,6.20
2023-05-22T21:35:35.699Z,6.40
2023-05-22T21:38:02.912Z,6.00
2023-05-22T21:40:30.089Z,5.80
2023-05-22T21:42:57.275Z,6.00
2023-05-22T21:45:24.438Z,6.20
2023-05-22T21:47:51.675Z,6.00
2023-05-22T21:50:18.972Z,6.00
2023-05-22T21:52:46.152Z,6.10
2023-05-22T21:55:13.404Z,6.60
2023-05-22T21:57:41.118Z,6.30
2023-05-22T22:00:09.170Z,6.70
2023-05-22T22:02:36.431Z,6.60
2023-05-22T22:05:04.346Z,6.10
2023-05-22T22:07:31.533Z,6.50
2023-05-22T22:09:59.091Z,7.00
2023-05-22T22:14:53.996Z,6.80
2023-05-22T22:17:23.701Z,7.30
2023-05-22T22:19:53.565Z,7.10
2023-05-22T22:22:22.827Z,6.80
2023-05-22T22:24:50.201Z,7.10
2023-05-22T22:27:17.711Z,7.00
2023-05-22T22:32:13.058Z,7.00
2023-05-22T22:34:40.532Z,6.40
2023-05-22T22:37:07.929Z,6.50
2023-05-22T22:39:35.116Z,6.50
2023-05-22T22:42:05.162Z,7.90
2023-05-22T22:44:32.477Z,6.30
2023-05-22T22:47:01.852Z,6.60
2023-05-22T22:49:29.175Z,6.40
2023-05-22T22:51:56.617Z,6.20
2023-05-22T22:56:51.499Z,6.30
2023-05-22T22:59:19.092Z,6.40
2023-05-22T23:01:46.417Z,6.80
2023-05-22T23:04:14.016Z,6.20
2023-05-22T23:06:44.701Z,6.00
2023-05-22T23:09:11.894Z,6.10
2023-05-22T23:11:39.128Z,6.30
2023-05-22T23:14:07.618Z,6.40
2023-05-22T23:16:41.066Z,5.80
2023-05-22T23:19:09.405Z,5.80
2023-05-22T23:21:36.909Z,5.70
2023-05-22T23:24:04.547Z,5.70
2023-05-22T23:26:32.114Z,6.20
2023-05-22T23:31:30.744Z,5.90
2023-05-22T23:33:58.635Z,6.20
2023-05-22T23:38:53.136Z,5.80
2023-05-22T23:41:20.293Z,6.30
2023-05-22T23:43:47.717Z,6.60
2023-05-22T23:46:14.993Z,6.30
2023-05-22T23:48:42.670Z,5.80
2023-05-22T23:51:10.033Z,6.10
2023-05-22T23:53:37.549Z,6.30
2023-05-22T23:58:32.326Z,6.00
